createdAt,value
2023-04-29T00:00:16.208Z,3.50
2023-04-29T00:02:48.537Z,3.30
2023-04-29T00:05:21.152Z,2.80
2023-04-29T00:07:52.930Z,3.50
2023-04-29T00:10:24.322Z,2.60
2023-04-29T00:12:55.889Z,4.20
2023-04-29T00:15:27.378Z,4.20
2023-04-29T00:17:58.835Z,3.30
2023-04-29T00:20:30.301Z,3.50
2023-04-29T00:23:01.732Z,3.10
2023-04-29T00:25:33.172Z,3.40
2023-04-29T00:28:04.924Z,3.00
2023-04-29T00:30:39.582Z,3.50
2023-04-29T00:33:11.599Z,2.80
2023-04-29T00:35:43.105Z,4.60
2023-04-29T00:40:45.263Z,3.10
2023-04-29T00:43:17.014Z,3.90
2023-04-29T00:48:19.750Z,3.20
2023-04-29T00:50:51.634Z,3.50
2023-04-29T00:53:24.259Z,3.50
2023-04-29T00:55:55.695Z,4.10
2023-04-29T00:58:33.464Z,3.70
2023-04-29T01:01:05.120Z,3.50
2023-04-29T01:06:11.587Z,3.70
2023-04-29T01:08:49.763Z,3.00
2023-04-29T01:11:24.601Z,3.00
2023-04-29T01:14:00.592Z,3.70
2023-04-29T01:16:36.457Z,3.80
2023-04-29T01:19:18.366Z,3.20
2023-04-29T01:21:50.551Z,3.80
2023-04-29T01:24:21.959Z,3.90
2023-04-29T01:26:56.408Z,4.20
2023-04-29T01:30:06.711Z,4.80
2023-04-29T01:32:43.103Z,3.90
2023-04-29T01:35:21.822Z,4.70
2023-04-29T01:37:57.036Z,3.80
2023-04-29T01:40:34.129Z,6.10
2023-04-29T01:43:16.207Z,4.60
2023-04-29T01:45:51.879Z,4.30
2023-04-29T01:48:23.543Z,4.90
2023-04-29T01:50:55.190Z,4.40
2023-04-29T01:53:26.631Z,4.90
2023-04-29T01:55:58.119Z,4.80
2023-04-29T01:58:32.777Z,4.40
2023-04-29T02:01:39.507Z,4.60
2023-04-29T02:04:11.789Z,4.20
2023-04-29T02:06:43.552Z,3.90
2023-04-29T02:09:15.592Z,2.30
2023-04-29T02:11:49.271Z,3.20
2023-04-29T02:14:21.292Z,2.50
2023-04-29T02:16:52.734Z,2.10
2023-04-29T02:19:24.310Z,2.80
2023-04-29T02:21:57.024Z,2.10
2023-04-29T02:24:28.615Z,2.80
2023-04-29T02:27:00.506Z,2.50
2023-04-29T02:29:33.582Z,2.80
2023-04-29T02:32:05.227Z,2.60
2023-04-29T02:37:06.541Z,3.10
2023-04-29T02:39:37.993Z,3.40
2023-04-29T02:42:09.429Z,3.10
2023-04-29T02:47:11.579Z,4.90
2023-04-29T02:49:43.337Z,4.00
2023-04-29T02:54:45.707Z,4.50
2023-04-29T02:57:17.352Z,5.40
2023-04-29T02:59:48.755Z,4.70
2023-04-29T03:02:20.297Z,6.40
2023-04-29T03:04:53.891Z,6.10
2023-04-29T03:07:25.779Z,5.70
2023-04-29T03:12:27.832Z,5.80
2023-04-29T03:14:59.299Z,5.50
2023-04-29T03:17:30.796Z,5.20
2023-04-29T03:20:02.371Z,5.30
2023-04-29T03:22:34.170Z,5.60
2023-04-29T03:25:06.306Z,5.90
2023-04-29T03:27:38.549Z,5.20
2023-04-29T03:30:12.331Z,5.00
2023-04-29T03:32:49.277Z,7.60
2023-04-29T03:38:07.523Z,5.40
2023-04-29T03:40:39.633Z,5.60
2023-04-29T03:43:11.097Z,5.60
2023-04-29T03:45:42.490Z,5.40
2023-04-29T03:50:44.662Z,4.60
2023-04-29T03:53:16.283Z,5.10
2023-04-29T03:55:48.844Z,5.50
2023-04-29T03:58:20.538Z,4.70
2023-04-29T04:00:52.275Z,5.70
2023-04-29T04:03:26.341Z,4.70
2023-04-29T04:05:59.430Z,4.30
2023-04-29T04:11:09.945Z,5.60
2023-04-29T04:13:46.368Z,5.60
2023-04-29T04:16:17.913Z,9.00
2023-04-29T04:18:49.391Z,5.80
2023-04-29T04:21:21.012Z,4.20
2023-04-29T04:23:59.393Z,4.50
2023-04-29T04:26:32.856Z,8.70
2023-04-29T04:29:27.558Z,5.40
2023-04-29T04:32:09.953Z,4.70
2023-04-29T04:34:43.702Z,5.70
2023-04-29T04:39:45.707Z,5.80
2023-04-29T04:44:47.072Z,5.90
2023-04-29T04:47:29.740Z,6.30
2023-04-29T04:50:12.893Z,5.20
2023-04-29T04:52:44.445Z,6.00
2023-04-29T04:55:28.036Z,7.30
2023-04-29T05:00:30.308Z,7.10
2023-04-29T05:03:02.127Z,5.90
2023-04-29T05:05:34.076Z,6.70
2023-04-29T05:08:06.267Z,5.80
2023-04-29T05:10:43.116Z,5.40
2023-04-29T05:13:17.272Z,5.60
2023-04-29T05:15:49.068Z,4.40
2023-04-29T05:18:24.913Z,4.70
2023-04-29T05:20:57.153Z,3.50
2023-04-29T05:23:29.516Z,10.80
2023-04-29T05:26:01.775Z,3.80
2023-04-29T05:31:03.344Z,3.40
2023-04-29T05:33:34.981Z,3.10
2023-04-29T05:36:07.697Z,3.70
2023-04-29T05:38:39.316Z,4.50
2023-04-29T05:41:14.420Z,3.90
2023-04-29T05:46:45.165Z,3.60
2023-04-29T05:51:47.622Z,3.30
2023-04-29T05:54:19.009Z,3.90
2023-04-29T05:56:50.672Z,4.20
2023-04-29T05:59:22.098Z,2.70
2023-04-29T06:01:56.785Z,3.70
2023-04-29T06:04:28.754Z,4.10
2023-04-29T06:07:20.210Z,4.10
2023-04-29T06:10:15.616Z,3.80
2023-04-29T06:12:51.775Z,5.30
2023-04-29T06:15:23.363Z,6.10
2023-04-29T06:17:55.007Z,4.80
2023-04-29T06:20:27.520Z,3.40
2023-04-29T06:22:59.123Z,3.70
2023-04-29T06:25:30.707Z,3.90
2023-04-29T06:28:05.669Z,4.60
2023-04-29T06:30:37.397Z,4.00
2023-04-29T06:33:09.784Z,4.60
2023-04-29T06:35:44.064Z,4.00
2023-04-29T06:38:24.626Z,3.20
2023-04-29T06:41:22.257Z,5.20
2023-04-29T06:44:10.220Z,3.60
2023-04-29T06:46:50.961Z,4.80
2023-04-29T06:49:32.537Z,3.80
2023-04-29T06:52:04.134Z,4.10
2023-04-29T06:54:37.137Z,4.00
2023-04-29T06:59:38.874Z,4.30
2023-04-29T07:02:10.308Z,5.70
2023-04-29T07:04:42.228Z,4.10
2023-04-29T07:07:14.601Z,4.30
2023-04-29T07:09:46.276Z,4.20
2023-04-29T07:12:17.712Z,4.70
2023-04-29T07:14:49.174Z,4.60
2023-04-29T07:19:51.906Z,4.10
2023-04-29T07:22:23.927Z,4.80
2023-04-29T07:24:57.663Z,3.90
2023-04-29T07:27:29.875Z,4.70
2023-04-29T07:30:04.770Z,3.60
2023-04-29T07:32:36.294Z,5.00
2023-04-29T07:35:10.393Z,4.40
2023-04-29T07:37:44.110Z,5.20
2023-04-29T07:40:16.402Z,4.50
2023-04-29T07:42:48.101Z,4.00
2023-04-29T07:47:49.819Z,4.40
2023-04-29T07:52:51.832Z,4.80
2023-04-29T07:55:24.535Z,4.70
2023-04-29T07:57:58.836Z,9.40
2023-04-29T08:00:32.096Z,4.20
2023-04-29T08:05:34.979Z,4.20
2023-04-29T08:08:07.129Z,5.10
2023-04-29T08:10:41.219Z,6.00
2023-04-29T08:13:13.847Z,5.40
2023-04-29T08:15:45.264Z,4.50
2023-04-29T08:18:16.789Z,5.70
2023-04-29T08:20:48.513Z,5.80
2023-04-29T08:25:52.131Z,6.30
2023-04-29T08:28:23.584Z,7.10
2023-04-29T08:30:55.741Z,6.10
2023-04-29T08:33:27.366Z,7.20
2023-04-29T08:36:03.863Z,6.20
2023-04-29T08:38:35.674Z,4.70
2023-04-29T08:41:08.762Z,6.20
2023-04-29T08:43:40.897Z,5.90
2023-04-29T08:46:13.150Z,6.00
2023-04-29T08:48:45.465Z,4.40
2023-04-29T08:51:17.698Z,5.20
2023-04-29T08:56:20.871Z,5.70
2023-04-29T08:58:54.873Z,6.70
2023-04-29T09:01:26.548Z,6.20
2023-04-29T09:04:02.980Z,6.60
2023-04-29T09:06:34.944Z,7.00
2023-04-29T09:11:37.285Z,5.50
2023-04-29T09:14:09.957Z,6.20
2023-04-29T09:16:41.596Z,5.70
2023-04-29T09:19:13.284Z,5.30
2023-04-29T09:21:45.001Z,5.90
2023-04-29T09:24:16.705Z,5.30
2023-04-29T09:26:49.341Z,6.40
2023-04-29T09:29:22.841Z,7.70
2023-04-29T09:31:54.761Z,7.30
2023-04-29T09:34:42.817Z,9.20
2023-04-29T09:37:27.863Z,7.60
2023-04-29T09:39:59.420Z,8.10
2023-04-29T09:42:30.998Z,6.70
2023-04-29T09:45:03.141Z,7.00
2023-04-29T09:47:34.996Z,7.80
2023-04-29T09:52:48.757Z,6.80
2023-04-29T09:55:20.305Z,8.60
2023-04-29T09:57:51.988Z,7.20
2023-04-29T10:02:53.876Z,7.20
2023-04-29T10:05:26.978Z,7.00
2023-04-29T10:07:58.544Z,7.80
2023-04-29T10:10:30.652Z,8.20
2023-04-29T10:13:02.295Z,6.90
2023-04-29T10:15:38.528Z,7.00
2023-04-29T10:18:14.592Z,9.10
2023-04-29T10:20:49.371Z,6.80
2023-04-29T10:23:20.755Z,7.70
2023-04-29T10:25:52.356Z,7.40
2023-04-29T10:28:23.822Z,7.70
2023-04-29T10:30:55.862Z,8.00
2023-04-29T10:33:28.667Z,7.00
2023-04-29T10:36:01.159Z,9.90
2023-04-29T10:38:35.025Z,9.20
2023-04-29T10:41:10.738Z,8.20
2023-04-29T10:43:42.279Z,8.20
2023-04-29T10:48:57.876Z,7.90
2023-04-29T10:51:33.349Z,6.40
2023-04-29T10:54:11.048Z,6.30
2023-04-29T10:56:49.574Z,6.00
2023-04-29T10:59:24.572Z,6.40
2023-04-29T11:01:56.272Z,5.80
2023-04-29T11:06:58.415Z,6.30
2023-04-29T11:09:30.716Z,6.50
2023-04-29T11:12:03.480Z,7.20
2023-04-29T11:14:38.165Z,11.90
2023-04-29T11:17:11.826Z,8.40
2023-04-29T11:19:46.767Z,4.40
2023-04-29T11:22:28.320Z,6.60
2023-04-29T11:25:01.981Z,4.60
2023-04-29T11:27:35.471Z,5.90
2023-04-29T11:30:08.394Z,4.70
2023-04-29T11:32:41.056Z,5.20
2023-04-29T11:35:13.385Z,6.00
2023-04-29T11:37:45.653Z,4.80
2023-04-29T11:40:17.837Z,4.40
2023-04-29T11:42:49.833Z,4.50
2023-04-29T11:45:21.541Z,4.70
2023-04-29T11:50:26.209Z,5.50
2023-04-29T11:52:58.816Z,10.60
2023-04-29T11:55:30.247Z,4.80
2023-04-29T11:58:02.086Z,4.90
2023-04-29T12:00:33.875Z,4.80
2023-04-29T12:03:05.813Z,4.90
2023-04-29T12:05:37.671Z,5.00
2023-04-29T12:08:11.358Z,8.30
2023-04-29T12:10:42.996Z,4.40
2023-04-29T12:15:44.192Z,5.40
2023-04-29T12:18:15.725Z,5.80
2023-04-29T12:20:47.121Z,5.00
2023-04-29T12:23:19.787Z,5.20
2023-04-29T12:25:53.345Z,5.20
2023-04-29T12:28:24.870Z,5.70
2023-04-29T12:33:28.028Z,7.10
2023-04-29T12:36:00.110Z,6.00
2023-04-29T12:38:32.647Z,6.20
2023-04-29T12:41:06.024Z,6.70
2023-04-29T12:43:38.680Z,4.70
2023-04-29T12:46:10.884Z,7.60
2023-04-29T12:48:44.083Z,5.80
2023-04-29T12:51:15.675Z,6.60
2023-04-29T12:53:47.368Z,6.10
2023-04-29T12:56:20.199Z,6.00
2023-04-29T12:58:51.941Z,5.80
2023-04-29T13:01:24.092Z,5.80
2023-04-29T13:03:56.206Z,6.20
2023-04-29T13:06:27.822Z,6.90
2023-04-29T13:08:59.497Z,8.10
2023-04-29T13:14:06.655Z,5.70
2023-04-29T13:16:38.987Z,6.50
2023-04-29T13:19:28.246Z,5.70
2023-04-29T13:22:01.763Z,6.90
2023-04-29T13:24:33.715Z,5.00
2023-04-29T13:27:06.093Z,6.00
2023-04-29T13:29:37.521Z,6.10
2023-04-29T13:32:09.699Z,6.30
2023-04-29T13:34:43.756Z,6.10
2023-04-29T13:37:15.795Z,7.70
2023-04-29T13:39:48.049Z,4.90
2023-04-29T13:42:20.311Z,5.20
2023-04-29T13:47:29.083Z,7.00
2023-04-29T13:50:32.854Z,6.10
2023-04-29T13:53:30.240Z,5.80
2023-04-29T14:03:32.475Z,7.70
2023-04-29T14:06:07.948Z,7.30
2023-04-29T14:08:39.570Z,7.60
2023-04-29T14:11:11.517Z,8.00
2023-04-29T14:13:43.115Z,7.20
2023-04-29T14:16:15.465Z,12.50
2023-04-29T14:18:47.723Z,7.50
2023-04-29T14:21:23.007Z,9.00
2023-04-29T14:23:54.441Z,6.20
2023-04-29T14:26:28.658Z,23.60
2023-04-29T14:29:00.662Z,5.70
2023-04-29T14:31:33.184Z,7.70
2023-04-29T14:34:04.751Z,7.40
2023-04-29T14:36:36.199Z,6.50
2023-04-29T14:39:08.764Z,7.90
2023-04-29T14:41:40.373Z,9.80
2023-04-29T14:44:11.919Z,9.00
2023-04-29T14:46:43.438Z,8.00
2023-04-29T14:51:45.118Z,7.30
2023-04-29T14:54:16.775Z,6.50
2023-04-29T14:59:18.330Z,6.20
2023-04-29T15:01:49.896Z,4.80
2023-04-29T15:04:21.862Z,6.40
2023-04-29T15:06:53.801Z,7.40
2023-04-29T15:09:27.094Z,5.20
2023-04-29T15:11:58.817Z,8.90
2023-04-29T15:17:01.874Z,6.40
2023-04-29T15:19:34.288Z,6.00
2023-04-29T15:22:06.205Z,5.90
2023-04-29T15:27:07.790Z,6.30
2023-04-29T15:29:39.211Z,8.10
2023-04-29T15:32:11.857Z,6.00
2023-04-29T15:34:43.473Z,6.40
2023-04-29T15:37:15.312Z,3.90
2023-04-29T15:39:48.240Z,3.60
2023-04-29T15:42:20.030Z,4.40
2023-04-29T15:47:22.977Z,3.90
2023-04-29T15:49:56.683Z,5.90
2023-04-29T15:52:28.793Z,3.90
2023-04-29T15:55:00.419Z,4.50
2023-04-29T16:00:02.293Z,3.90
2023-04-29T16:02:37.122Z,4.10
2023-04-29T16:05:09.718Z,4.20
2023-04-29T16:07:41.808Z,5.40
2023-04-29T16:10:13.593Z,5.40
2023-04-29T16:12:45.473Z,5.10
2023-04-29T16:15:17.375Z,4.80
2023-04-29T16:17:48.799Z,4.40
2023-04-29T16:20:20.856Z,5.90
2023-04-29T16:22:52.236Z,4.80
2023-04-29T16:25:23.757Z,5.70
2023-04-29T16:27:55.319Z,5.00
2023-04-29T16:30:28.496Z,5.40
2023-04-29T16:33:00.278Z,4.60
2023-04-29T16:38:02.704Z,5.10
2023-04-29T16:40:34.130Z,4.90
2023-04-29T16:43:05.593Z,5.30
2023-04-29T16:45:37.291Z,6.30
2023-04-29T16:50:39.751Z,4.30
2023-04-29T16:53:11.417Z,6.10
2023-04-29T16:55:42.809Z,4.80
2023-04-29T16:58:14.169Z,3.50
2023-04-29T17:00:45.834Z,4.70
2023-04-29T17:05:47.344Z,4.20
2023-04-29T17:10:48.692Z,3.70
2023-04-29T17:13:20.566Z,4.50
2023-04-29T17:15:52.251Z,4.00
2023-04-29T17:18:23.832Z,3.80
2023-04-29T17:23:25.593Z,4.60
2023-04-29T17:25:57.339Z,4.10
2023-04-29T17:31:01.466Z,3.80
2023-04-29T17:33:35.830Z,3.20
2023-04-29T17:36:08.920Z,3.90
2023-04-29T17:38:40.928Z,4.00
2023-04-29T17:41:12.332Z,8.30
2023-04-29T17:43:43.948Z,4.80
2023-04-29T17:46:15.933Z,4.70
2023-04-29T17:48:47.477Z,4.20
2023-04-29T17:51:19.136Z,4.50
2023-04-29T17:53:50.959Z,4.10
2023-04-29T17:56:23.637Z,3.20
2023-04-29T17:58:55.574Z,3.90
2023-04-29T18:01:27.113Z,3.80
2023-04-29T18:03:58.591Z,3.70
2023-04-29T18:06:30.631Z,4.10
2023-04-29T18:09:02.552Z,4.60
2023-04-29T18:11:34.030Z,3.00
2023-04-29T18:14:06.176Z,3.90
2023-04-29T18:16:40.313Z,4.00
2023-04-29T18:19:12.626Z,4.00
2023-04-29T18:21:44.086Z,4.10
2023-04-29T18:26:45.649Z,5.00
2023-04-29T18:29:17.089Z,7.00
2023-04-29T18:31:48.543Z,5.00
2023-04-29T18:34:19.954Z,4.80
2023-04-29T18:36:51.703Z,4.40
2023-04-29T18:41:53.245Z,4.60
2023-04-29T18:44:26.154Z,4.70
2023-04-29T18:46:57.783Z,5.00
2023-04-29T18:49:30.741Z,4.50
2023-04-29T18:52:03.690Z,4.90
2023-04-29T18:54:35.265Z,5.00
2023-04-29T18:57:07.212Z,4.80
2023-04-29T18:59:38.839Z,5.90
2023-04-29T19:02:11.000Z,5.00
2023-04-29T19:04:42.731Z,4.50
2023-04-29T19:07:14.287Z,4.40
2023-04-29T19:09:45.846Z,4.90
2023-04-29T19:12:17.345Z,4.30
2023-04-29T19:14:48.813Z,4.70
2023-04-29T19:17:20.388Z,4.40
2023-04-29T19:22:22.669Z,6.00
2023-04-29T19:27:24.160Z,4.10
2023-04-29T19:32:27.565Z,4.70
2023-04-29T19:35:00.372Z,5.70
2023-04-29T19:37:31.970Z,5.90
2023-04-29T19:40:04.034Z,4.70
2023-04-29T19:42:35.902Z,4.80
2023-04-29T19:45:09.541Z,4.50
2023-04-29T19:47:41.017Z,4.50
2023-04-29T19:50:13.075Z,4.60
2023-04-29T19:52:44.767Z,4.50
2023-04-29T19:57:46.371Z,5.00
2023-04-29T20:00:18.498Z,5.70
2023-04-29T20:02:52.547Z,4.00
2023-04-29T20:05:24.803Z,3.80
2023-04-29T20:07:56.358Z,4.40
2023-04-29T20:13:01.618Z,4.20
2023-04-29T20:15:33.179Z,4.00
2023-04-29T20:20:34.661Z,4.20
2023-04-29T20:23:06.065Z,4.70
2023-04-29T20:25:37.687Z,4.60
2023-04-29T20:30:41.152Z,5.20
2023-04-29T20:33:12.909Z,6.40
2023-04-29T20:35:44.411Z,4.50
2023-04-29T20:38:16.224Z,5.10
2023-04-29T20:43:17.639Z,4.00
2023-04-29T20:45:49.267Z,5.30
2023-04-29T20:48:21.035Z,5.40
2023-04-29T20:50:52.589Z,5.80
2023-04-29T20:53:24.044Z,4.70
2023-04-29T20:55:56.055Z,5.40
2023-04-29T20:58:27.528Z,6.30
2023-04-29T21:00:59.047Z,5.80
2023-04-29T21:03:30.617Z,6.20
2023-04-29T21:06:02.154Z,4.90
2023-04-29T21:08:33.633Z,5.80
2023-04-29T21:11:05.566Z,5.00
2023-04-29T21:13:36.996Z,6.10
2023-04-29T21:16:08.913Z,7.00
2023-04-29T21:21:10.648Z,7.00
2023-04-29T21:23:42.549Z,7.00
2023-04-29T21:26:15.237Z,7.90
2023-04-29T21:28:46.839Z,7.40
2023-04-29T21:31:18.479Z,8.30
2023-04-29T21:33:50.276Z,7.40
2023-04-29T21:36:21.631Z,8.90
2023-04-29T21:38:54.931Z,8.10
2023-04-29T21:41:28.850Z,7.30
2023-04-29T21:44:01.908Z,8.30
2023-04-29T21:46:34.233Z,8.10
2023-04-29T21:49:05.935Z,8.00
2023-04-29T21:54:08.869Z,8.70
2023-04-29T21:56:40.707Z,8.80
2023-04-29T22:01:49.380Z,10.50
2023-04-29T22:04:20.863Z,11.40
2023-04-29T22:06:52.316Z,10.50
2023-04-29T22:09:23.913Z,10.80
2023-04-29T22:11:55.740Z,10.70
2023-04-29T22:14:27.460Z,12.50
2023-04-29T22:19:30.489Z,14.60
2023-04-29T22:22:02.177Z,13.50
2023-04-29T22:27:03.744Z,12.60
2023-04-29T22:32:05.722Z,10.40
2023-04-29T22:34:37.386Z,11.70
2023-04-29T22:37:09.072Z,12.50
2023-04-29T22:39:40.661Z,10.90
2023-04-29T22:42:12.303Z,11.40
2023-04-29T22:44:43.912Z,13.60
2023-04-29T22:47:15.467Z,13.50
2023-04-29T22:49:46.922Z,12.00
2023-04-29T22:52:18.424Z,14.00
2023-04-29T22:54:49.844Z,11.00
2023-04-29T22:57:21.480Z,10.70
2023-04-29T23:02:29.945Z,11.70
2023-04-29T23:05:01.787Z,11.10
2023-04-29T23:07:33.314Z,10.50
2023-04-29T23:10:04.898Z,11.70
2023-04-29T23:12:36.301Z,10.60
2023-04-29T23:15:10.008Z,9.20
2023-04-29T23:17:41.564Z,10.20
2023-04-29T23:20:15.307Z,10.50
2023-04-29T23:22:47.136Z,10.50
2023-04-29T23:25:18.952Z,9.10
2023-04-29T23:27:50.413Z,9.50
2023-04-29T23:30:22.020Z,10.00
2023-04-29T23:32:53.529Z,9.40
2023-04-29T23:35:25.033Z,10.40
2023-04-29T23:37:56.459Z,8.40
2023-04-29T23:40:28.242Z,10.10
2023-04-29T23:45:29.450Z,8.40
2023-04-29T23:48:01.015Z,10.40
2023-04-29T23:53:02.377Z,13.20
2023-04-29T23:55:34.790Z,10.70
2023-04-29T23:58:06.235Z,12.20
